Latest Weather Observations for Melville Water

IDW60901

Issued at 11:51 am WST Monday 29 August 2016 (issued every 10 minutes, with the page automatically refreshed every 10 minutes)

About weather observations | Map of Perth area stations | Latest observations for Perth area | Other Formats
Station Details ID: 009091 Name: INNER DOLPHIN PYLON Lat: -31.99 Lon: 115.83 Height: 0.0 m
Data from the previous 72 hours. | See also: Recent months at Melville Water
Date/Time
WST
Temp
°C
App
Temp
°C
Dew
Point
°C
Rel
Hum
%
Delta-T
°C
Wind Press
QNH
hPa
Press
MSL
hPa
Rain since
9am
mm
Dir  Spd
km/h
Gust
km/h
Spd
kts
Gust
kts
29/11:30am - - - - - SW 13 19 7 10 - - -
29/11:00am - - - - - SSW 13 15 7 8 - - -
29/10:30am - - - - - S 13 17 7 9 - - -
29/10:00am - - - - - S 13 20 7 11 - - -
29/09:30am - - - - - S 13 19 7 10 - - -
29/09:00am - - - - - S 13 19 7 10 - - -
29/08:30am - - - - - SSW 9 15 5 8 - - -
29/08:00am - - - - - SSE 9 11 5 6 - - -
29/07:30am - - - - - SSE 11 15 6 8 - - -
29/07:00am - - - - - SSE 9 11 5 6 - - -
29/06:30am - - - - - S 11 15 6 8 - - -
29/06:00am - - - - - S 15 20 8 11 - - -
29/05:30am - - - - - S 15 22 8 12 - - -
29/05:00am - - - - - SSE 9 15 5 8 - - -
29/04:30am - - - - - S 17 20 9 11 - - -
29/04:00am - - - - - SSW 13 19 7 10 - - -
29/03:30am - - - - - S 17 22 9 12 - - -
29/03:00am - - - - - SSW 15 19 8 10 - - -
29/02:30am - - - - - SSW 15 20 8 11 - - -
29/02:00am - - - - - SSW 17 20 9 11 - - -
29/01:30am - - - - - SSW 19 22 10 12 - - -
29/01:00am - - - - - SSW 17 20 9 11 - - -
29/12:30am - - - - - SSW 15 19 8 10 - - -
29/12:00am - - - - - SSW 19 22 10 12 - - -
 
Date/Time
WST
Temp
°C
App
Temp
°C
Dew
Point
°C
Rel
Hum
%
Delta-T
°C
Wind Press
QNH
hPa
Press
MSL
hPa
Rain since
9am
mm
Dir  Spd
km/h
Gust
km/h
Spd
kts
Gust
kts
28/11:30pm - - - - - SSW 20 24 11 13 - - -
28/11:00pm - - - - - SSW 19 22 10 12 - - -
28/10:30pm - - - - - S 17 20 9 11 - - -
28/10:00pm - - - - - S 20 26 11 14 - - -
28/09:30pm - - - - - SSW 20 26 11 14 - - -
28/09:00pm - - - - - SSW 22 28 12 15 - - -
28/08:30pm - - - - - SSW 22 30 12 16 - - -
28/08:00pm - - - - - SSW 24 33 13 18 - - -
28/07:30pm - - - - - SSW 26 33 14 18 - - -
28/07:00pm - - - - - SSW 30 35 16 19 - - -
28/06:30pm - - - - - SSW 30 39 16 21 - - -
28/06:00pm - - - - - SSW 33 43 18 23 - - -
28/05:30pm - - - - - SW 35 44 19 24 - - -
28/05:00pm - - - - - SSW 37 48 20 26 - - -
28/04:30pm - - - - - SW 35 46 19 25 - - -
28/04:00pm - - - - - SSW 37 46 20 25 - - -
28/03:30pm - - - - - SW 43 50 23 27 - - -
28/03:00pm - - - - - SSW 37 48 20 26 - - -
28/02:30pm - - - - - SW 37 48 20 26 - - -
28/02:00pm - - - - - SW 37 44 20 24 - - -
28/01:30pm - - - - - SSW 35 48 19 26 - - -
28/01:00pm - - - - - SSW 39 54 21 29 - - -
28/12:30pm - - - - - SSW 39 46 21 25 - - -
28/12:00pm - - - - - SSW 41 50 22 27 - - -
28/11:30am - - - - - SSW 39 50 21 27 - - -
28/11:00am - - - - - SSW 39 52 21 28 - - -
28/10:30am - - - - - SSW 37 50 20 27 - - -
28/10:00am - - - - - SSW 41 52 22 28 - - -
28/09:30am - - - - - SSW 35 52 19 28 - - -
28/09:00am - - - - - SSW 32 43 17 23 - - -
28/08:30am - - - - - SSW 32 43 17 23 - - -
28/08:00am - - - - - SSW 33 46 18 25 - - -
28/07:30am - - - - - S 24 39 13 21 - - -
28/07:00am - - - - - S 24 35 13 19 - - -
28/06:30am - - - - - SSW 26 33 14 18 - - -
28/06:00am - - - - - S 22 28 12 15 - - -
28/05:30am - - - - - SSW 26 33 14 18 - - -
28/05:00am - - - - - S 24 32 13 17 - - -
28/04:30am - - - - - SSW 24 33 13 18 - - -
28/04:00am - - - - - SSW 26 33 14 18 - - -
28/03:30am - - - - - SSW 32 37 17 20 - - -
28/03:00am - - - - - SSW 35 43 19 23 - - -
28/02:30am - - - - - SSW 33 44 18 24 - - -
28/02:00am - - - - - SSW 33 46 18 25 - - -
28/01:30am - - - - - SW 26 39 14 21 - - -
28/01:12am - - - - - SSW 32 52 17 28 - - -
28/01:00am - - - - - SSW 30 37 16 20 - - -
28/12:30am - - - - - SW 32 44 17 24 - - -
28/12:00am - - - - - SSW 33 48 18 26 - - -
 
Date/Time
WST
Temp
°C
App
Temp
°C
Dew
Point
°C
Rel
Hum
%
Delta-T
°C
Wind Press
QNH
hPa
Press
MSL
hPa
Rain since
9am
mm
Dir  Spd
km/h
Gust
km/h
Spd
kts
Gust
kts
27/11:30pm - - - - - SW 32 46 17 25 - - -
27/11:00pm - - - - - SW 35 50 19 27 - - -
27/10:53pm - - - - - SW 30 48 16 26 - - -
27/10:30pm - - - - - SW 30 44 16 24 - - -
27/10:01pm - - - - - SW 37 56 20 30 - - -
27/10:00pm - - - - - SW 35 52 19 28 - - -
27/09:37pm - - - - - SSW 35 54 19 29 - - -
27/09:30pm - - - - - SW 32 41 17 22 - - -
27/09:09pm - - - - - SW 43 61 23 33 - - -
27/09:00pm - - - - - SW 37 50 20 27 - - -
27/08:47pm - - - - - SW 37 56 20 30 - - -
27/08:30pm - - - - - SW 41 57 22 31 - - -
27/08:04pm - - - - - SW 41 59 22 32 - - -
27/08:00pm - - - - - SW 39 50 21 27 - - -
27/07:31pm - - - - - SW 46 69 25 37 - - -
27/07:30pm - - - - - SW 44 57 24 31 - - -
27/07:00pm - - - - - WSW 37 57 20 31 - - -
27/06:57pm - - - - - WSW 37 56 20 30 - - -
27/06:30pm - - - - - WSW 39 54 21 29 - - -
27/06:00pm - - - - - WSW 37 48 20 26 - - -
27/05:46pm - - - - - WSW 43 67 23 36 - - -
27/05:30pm - - - - - WSW 35 46 19 25 - - -
27/05:00pm - - - - - W 39 48 21 26 - - -
27/04:30pm - - - - - WSW 39 57 21 31 - - -
27/04:15pm - - - - - W 35 56 19 30 - - -
27/04:00pm - - - - - W 30 44 16 24 - - -
27/03:33pm - - - - - W 33 52 18 28 - - -
27/03:30pm - - - - - W 33 46 18 25 - - -
27/03:01pm - - - - - WSW 33 56 18 30 - - -
27/03:00pm - - - - - WSW 33 48 18 26 - - -
27/02:39pm - - - - - WSW 37 57 20 31 - - -
27/02:30pm - - - - - WSW 39 46 21 25 - - -
27/02:00pm - - - - - W 26 35 14 19 - - -
27/01:51pm - - - - - WSW 33 52 18 28 - - -
27/01:30pm - - - - - WSW 35 50 19 27 - - -
27/01:00pm - - - - - WSW 39 52 21 28 - - -
27/12:32pm - - - - - WSW 35 54 19 29 - - -
27/12:30pm - - - - - WSW 35 50 19 27 - - -
27/12:00pm - - - - - WSW 37 48 20 26 - - -
27/11:30am - - - - - WSW 39 48 21 26 - - -
27/11:06am - - - - - WNW 37 50 20 27 - - -
27/11:00am - - - - - WNW 32 50 17 27 - - -
27/10:58am - - - - - WNW 32 50 17 27 - - -
27/10:30am - - - - - WNW 26 39 14 21 - - -
27/10:16am - - - - - NW 28 46 15 25 - - -
27/10:00am - - - - - WNW 26 39 14 21 - - -
27/09:30am - - - - - WNW 28 50 15 27 - - -
27/09:14am - - - - - W 28 44 15 24 - - -
27/09:00am - - - - - WNW 24 35 13 19 - - -
27/08:30am - - - - - NW 24 39 13 21 - - -
27/08:00am - - - - - NW 24 35 13 19 - - -
27/07:30am - - - - - NW 19 28 10 15 - - -
27/07:00am - - - - - WNW 19 28 10 15 - - -
27/06:30am - - - - - WNW 15 22 8 12 - - -
27/06:00am - - - - - N 11 17 6 9 - - -
27/05:30am - - - - - NNW 19 28 10 15 - - -
27/05:00am - - - - - N 13 15 7 8 - - -
27/04:30am - - - - - N 19 22 10 12 - - -
27/04:00am - - - - - NNW 20 26 11 14 - - -
27/03:30am - - - - - NW 22 30 12 16 - - -
27/03:00am - - - - - WNW 19 32 10 17 - - -
27/02:30am - - - - - NW 9 17 5 9 - - -
27/02:00am - - - - - W 7 11 4 6 - - -
27/01:30am - - - - - W 13 19 7 10 - - -
27/01:00am - - - - - W 17 26 9 14 - - -
27/12:30am - - - - - W 13 19 7 10 - - -
27/12:00am - - - - - W 15 19 8 10 - - -
 
Date/Time
WST
Temp
°C
App
Temp
°C
Dew
Point
°C
Rel
Hum
%
Delta-T
°C
Wind Press
QNH
hPa
Press
MSL
hPa
Rain since
9am
mm
Dir  Spd
km/h
Gust
km/h
Spd
kts
Gust
kts
26/11:30pm - - - - - WSW 19 33 10 18 - - -
26/11:00pm - - - - - WSW 19 28 10 15 - - -
26/10:30pm - - - - - WSW 17 22 9 12 - - -
26/10:00pm - - - - - WSW 30 37 16 20 - - -
26/09:30pm - - - - - WSW 32 39 17 21 - - -
26/09:00pm - - - - - WSW 32 46 17 25 - - -
26/08:30pm - - - - - N 33 52 18 28 - - -
26/08:00pm - - - - - N 33 52 18 28 - - -
26/07:51pm - - - - - N 32 52 17 28 - - -
26/07:30pm - - - - - N 28 37 15 20 - - -
26/07:00pm - - - - - N 28 41 15 22 - - -
26/06:30pm - - - - - N 28 39 15 21 - - -
26/06:05pm - - - - - NW 28 46 15 25 - - -
26/06:00pm - - - - - NW 28 43 15 23 - - -
26/05:43pm - - - - - NNW 35 56 19 30 - - -
26/05:30pm - - - - - N 30 44 16 24 - - -
26/05:00pm - - - - - N 28 41 15 22 - - -
26/04:30pm - - - - - NNW 30 43 16 23 - - -
26/04:14pm - - - - - NNW 35 54 19 29 - - -
26/04:00pm - - - - - NNW 35 52 19 28 - - -
26/03:52pm - - - - - NNW 35 54 19 29 - - -
26/03:30pm - - - - - NNW 30 44 16 24 - - -
26/03:18pm - - - - - NNW 28 46 15 25 - - -
26/03:00pm - - - - - N 22 32 12 17 - - -
26/02:30pm - - - - - N 22 33 12 18 - - -
26/02:00pm - - - - - NNE 22 33 12 18 - - -
26/01:30pm - - - - - N 24 33 13 18 - - -
26/01:00pm - - - - - NNE 22 30 12 16 - - -
26/12:30pm - - - - - NNE 24 32 13 17 - - -
26/12:00pm - - - - - NNE 24 33 13 18 - - -

Latest Capital City Observations: Canberra | Sydney | Melbourne | Brisbane | Adelaide | Perth | Hobart | Darwin

Other Formats:

Comma delimited format used in spreadsheet applications
http://www.bom.gov.au/fwo/IDW60901/IDW60901.95620.axf

JavaScript Object Notation format (JSON) in row-major order
http://www.bom.gov.au/fwo/IDW60901/IDW60901.95620.json